Time;durP1;ratioP1;P1;durP2;ratioP2;P2;SDS_P1;SDS_P2;PMS_P1;PMS_P2;Temp;Humidity;BMP_temperature;BMP_pressure;BME280_temperature;BME280_humidity;BME280_pressure;Samples;Min_cycle;Max_cycle;Signal;HPM_P1;HPM_P2
2022/01/01 00:14:26;;;;;;;29.87;11.67;;;;;;;-0.70;100.00;100033.34;31211486;28;20064;-84
2022/01/01 00:29:29;;;;;;;19.90;4.53;;;;;;;-0.65;100.00;100028.88;31205368;28;20050;-86
2022/01/01 00:44:32;;;;;;;48.20;10.63;;;;;;;-0.59;100.00;99985.63;31225801;28;20056;-86
2022/01/01 00:59:34;;;;;;;56.67;12.37;;;;;;;-0.49;100.00;99973.66;31202360;28;20140;-79
2022/01/01 01:14:40;;;;;;;8.40;5.33;;;;;;;-0.43;100.00;99946.34;31199592;28;20513;-80
2022/01/01 01:29:45;;;;;;;54.27;11.37;;;;;;;-0.38;100.00;99921.31;31197460;28;20422;-82
2022/01/01 01:44:51;;;;;;;59.07;9.87;;;;;;;-0.36;100.00;99893.16;31189918;28;20056;-79
2022/01/01 01:59:53;;;;;;;39.77;11.83;;;;;;;-0.31;100.00;99868.13;31201411;28;20085;-77
2022/01/01 02:29:57;;;;;;;10.13;4.60;;;;;;;-0.29;100.00;99822.44;31167891;28;20149;-80
2022/01/01 02:45:01;;;;;;;56.87;10.83;;;;;;;-0.27;100.00;99798.84;31187559;28;20045;-79
2022/01/01 03:00:05;;;;;;;21.27;7.57;;;;;;;-0.26;100.00;99771.81;31179253;28;20053;-80
2022/01/01 03:15:07;;;;;;;44.00;10.67;;;;;;;-0.23;100.00;99751.63;31182590;28;20049;-80
2022/01/01 03:30:09;;;;;;;30.57;7.37;;;;;;;-0.21;100.00;99736.81;31162620;28;20056;-83
2022/01/01 03:45:11;;;;;;;15.67;6.60;;;;;;;-0.16;100.00;99725.09;31181071;28;20495;-84
2022/01/01 04:00:14;;;;;;;21.00;6.33;;;;;;;-0.12;100.00;99699.25;31186143;28;20123;-83
2022/01/01 04:15:16;;;;;;;30.67;9.70;;;;;;;-0.06;100.00;99684.50;31211673;28;20052;-82
2022/01/01 04:30:18;;;;;;;31.23;6.47;;;;;;;-0.01;100.00;99652.16;31195569;28;20053;-80
2022/01/01 04:45:20;;;;;;;10.27;3.87;;;;;;;0.04;100.00;99638.50;31187818;28;20046;-76
2022/01/01 05:00:22;;;;;;;12.57;5.83;;;;;;;0.12;100.00;99634.06;31188613;28;20076;-79
2022/01/01 05:15:24;;;;;;;19.10;7.93;;;;;;;0.19;100.00;99624.25;31210670;28;20137;-77
2022/01/01 05:30:26;;;;;;;11.63;5.90;;;;;;;0.39;100.00;99592.09;31197324;28;20491;-78
2022/01/01 05:45:33;;;;;;;17.83;7.03;;;;;;;0.55;100.00;99612.13;31204333;28;20368;-78
2022/01/01 06:00:35;;;;;;;9.77;6.00;;;;;;;0.70;100.00;99589.06;31193721;28;20211;-78
2022/01/01 06:15:37;;;;;;;19.63;6.27;;;;;;;0.81;100.00;99579.25;31181235;28;20415;-78
2022/01/01 06:30:45;;;;;;;14.60;6.30;;;;;;;0.92;100.00;99590.06;31172870;28;20157;-79
2022/01/01 06:45:47;;;;;;;13.53;5.47;;;;;;;1.06;100.00;99562.69;31178248;28;20103;-79
2022/01/01 07:00:50;;;;;;;10.33;5.47;;;;;;;1.17;100.00;99559.00;31184582;28;20112;-80
2022/01/01 07:15:52;;;;;;;15.53;6.00;;;;;;;1.30;100.00;99538.09;31161653;28;20045;-80
2022/01/01 07:30:54;;;;;;;30.20;8.00;;;;;;;1.34;100.00;99528.22;31189182;28;20060;-79
2022/01/01 07:45:56;;;;;;;49.10;7.60;;;;;;;1.36;100.00;99512.56;31179491;28;20081;-79
2022/01/01 08:00:58;;;;;;;28.53;7.80;;;;;;;1.49;100.00;99492.41;31210204;28;20064;-80
2022/01/01 08:16:06;;;;;;;28.43;9.80;;;;;;;1.60;100.00;99484.47;31213987;28;20411;-81
2022/01/01 08:31:08;;;;;;;32.83;13.53;;;;;;;1.68;100.00;99497.50;31212631;28;20111;-80
2022/01/01 08:46:11;;;;;;;25.50;11.20;;;;;;;1.75;100.00;99491.44;31203180;28;20049;-82
2022/01/01 09:01:14;;;;;;;70.27;14.30;;;;;;;1.85;100.00;99469.31;31187345;28;20050;-86
2022/01/01 09:16:18;;;;;;;33.23;14.53;;;;;;;2.07;100.00;99443.41;31212077;28;20050;-85
2022/01/01 09:31:20;;;;;;;32.43;11.27;;;;;;;2.11;100.00;99449.56;31192437;28;20092;-82
2022/01/01 09:46:23;;;;;;;34.73;12.03;;;;;;;2.28;100.00;99440.03;31209991;28;20050;-85
2022/01/01 10:01:29;;;;;;;33.13;12.47;;;;;;;2.39;100.00;99422.84;31189033;28;20062;-85
2022/01/01 10:16:31;;;;;;;33.33;11.70;;;;;;;2.47;100.00;99414.81;31205740;28;20132;-86
2022/01/01 10:31:34;;;;;;;35.63;11.60;;;;;;;2.58;100.00;99402.22;31194161;28;20124;-84
2022/01/01 10:46:38;;;;;;;22.90;9.93;;;;;;;2.76;100.00;99408.38;31183481;28;20068;-85
2022/01/01 11:01:45;;;;;;;20.67;9.57;;;;;;;2.83;100.00;99397.66;31206329;28;20065;-84
2022/01/01 11:16:47;;;;;;;26.60;11.33;;;;;;;3.01;100.00;99393.06;31197117;28;20080;-84
2022/01/01 11:31:54;;;;;;;26.00;10.00;;;;;;;3.09;100.00;99404.50;31180492;28;20053;-85
2022/01/01 11:47:04;;;;;;;30.73;10.33;;;;;;;2.96;100.00;99408.75;31192668;28;20136;-84
2022/01/01 12:02:18;;;;;;;23.23;9.03;;;;;;;2.95;100.00;99425.97;31195312;28;20050;-85
2022/01/01 12:17:22;;;;;;;34.40;11.63;;;;;;;2.92;100.00;99443.59;31200759;28;20053;-85
2022/01/01 12:32:44;;;;;;;25.17;8.97;;;;;;;2.90;100.00;99442.44;31222352;28;20053;-85
2022/01/01 12:47:47;;;;;;;32.37;10.10;;;;;;;2.91;100.00;99436.69;31216614;28;20541;-84
2022/01/01 13:02:55;;;;;;;28.83;9.43;;;;;;;2.91;100.00;99452.78;31188834;28;20518;-83
2022/01/01 13:18:00;;;;;;;25.57;9.23;;;;;;;2.84;100.00;99466.19;31187899;28;20196;-82
2022/01/01 13:33:02;;;;;;;19.20;7.63;;;;;;;2.96;100.00;99492.63;31207187;28;20137;-83
2022/01/01 13:48:08;;;;;;;15.73;6.67;;;;;;;3.02;100.00;99512.56;31197008;28;20499;-82
2022/01/01 14:03:11;;;;;;;13.80;6.93;;;;;;;2.96;100.00;99540.91;31222046;28;20049;-82
2022/01/01 14:18:24;;;;;;;12.27;5.47;;;;;;;2.95;100.00;99560.03;31147736;28;20120;-81
2022/01/01 14:33:28;;;;;;;10.87;5.60;;;;;;;2.91;100.00;99580.72;31203710;28;20124;-75
2022/01/01 14:48:47;;;;;;;14.43;6.33;;;;;;;2.80;100.00;99594.09;31209528;28;20136;-80
2022/01/01 15:04:00;;;;;;;16.13;5.60;;;;;;;2.73;100.00;99612.81;31166274;28;20046;-81
2022/01/01 15:19:02;;;;;;;13.67;6.10;;;;;;;2.60;100.00;99608.94;31174156;28;20058;-82
2022/01/01 15:34:11;;;;;;;11.43;5.37;;;;;;;2.61;100.00;99597.81;31177311;28;20522;-80
2022/01/01 15:49:14;;;;;;;10.30;4.33;;;;;;;2.74;100.00;99614.34;31202804;28;20079;-82
2022/01/01 16:04:34;;;;;;;9.07;4.60;;;;;;;2.87;100.00;99615.53;31206140;28;20057;-77
2022/01/01 16:19:36;;;;;;;8.37;4.40;;;;;;;2.98;100.00;99624.41;31230508;28;20067;-80
2022/01/01 16:34:39;;;;;;;9.83;4.93;;;;;;;2.92;100.00;99633.19;31222108;28;20049;-78
2022/01/01 16:49:46;;;;;;;9.00;4.90;;;;;;;3.02;100.00;99609.09;31198730;28;20144;-80
2022/01/01 17:05:02;;;;;;;8.70;4.97;;;;;;;3.08;100.00;99606.78;31191753;28;20058;-80
2022/01/01 17:20:12;;;;;;;16.17;5.93;;;;;;;3.07;100.00;99624.06;31172695;28;20108;-81
2022/01/01 17:50:44;;;;;;;8.50;3.97;;;;;;;2.92;100.00;99631.28;31205317;28;20418;-81
2022/01/01 18:05:49;;;;;;;6.87;4.13;;;;;;;2.87;100.00;99639.69;31189128;28;20060;-81
2022/01/01 18:20:58;;;;;;;10.43;4.40;;;;;;;2.89;100.00;99636.63;31180461;28;20135;-79
2022/01/01 18:36:06;;;;;;;12.27;5.83;;;;;;;2.82;100.00;99637.38;31190157;28;20056;-81
2022/01/01 18:51:17;;;;;;;12.50;5.40;;;;;;;2.83;100.00;99633.56;31188601;28;20240;-80
2022/01/01 19:06:19;;;;;;;11.17;5.07;;;;;;;2.73;100.00;99650.34;31202641;28;20072;-81
2022/01/01 19:21:22;;;;;;;8.97;4.27;;;;;;;2.74;100.00;99630.44;31202750;28;20084;-80
2022/01/01 19:36:25;;;;;;;12.30;5.07;;;;;;;2.84;100.00;99623.56;31206540;28;20075;-82
2022/01/01 19:51:32;;;;;;;8.87;4.10;;;;;;;2.83;100.00;99635.47;31196293;28;20045;-84
2022/01/01 20:06:34;;;;;;;9.73;4.57;;;;;;;2.89;100.00;99632.03;31177558;28;20061;-80
2022/01/01 20:21:36;;;;;;;14.53;6.40;;;;;;;2.79;100.00;99614.00;31214416;28;20056;-86
2022/01/01 20:36:38;;;;;;;24.27;7.67;;;;;;;2.71;100.00;99617.78;31216648;28;20042;-83
2022/01/01 20:51:41;;;;;;;25.07;8.70;;;;;;;2.63;100.00;99614.31;31234246;28;20045;-84
2022/01/01 21:06:47;;;;;;;23.53;8.77;;;;;;;2.60;100.00;99603.59;31195536;28;20149;-83
2022/01/01 21:21:51;;;;;;;25.73;9.73;;;;;;;2.64;100.00;99604.34;31220823;28;20083;-85
2022/01/01 21:36:52;;;;;;;19.60;8.53;;;;;;;2.68;100.00;99615.84;31200295;28;20060;-84
2022/01/01 21:51:58;;;;;;;16.07;7.97;;;;;;;2.63;100.00;99610.84;31211450;28;20504;-83
2022/01/01 22:07:01;;;;;;;16.97;7.30;;;;;;;2.63;100.00;99602.81;31231332;28;20080;-84
2022/01/01 22:22:03;;;;;;;21.27;7.43;;;;;;;2.67;100.00;99590.19;31211601;28;20132;-85
2022/01/01 22:37:05;;;;;;;14.93;7.27;;;;;;;2.67;100.00;99600.91;31209181;28;20037;-85
2022/01/01 22:52:07;;;;;;;19.57;8.67;;;;;;;2.69;100.00;99618.16;31185873;28;20053;-83
2022/01/01 23:07:09;;;;;;;19.60;8.17;;;;;;;2.65;100.00;99612.00;31191143;28;20075;-84
2022/01/01 23:22:11;;;;;;;14.30;6.13;;;;;;;2.76;100.00;99620.13;31169511;28;20068;-85
2022/01/01 23:37:16;;;;;;;8.77;4.70;;;;;;;2.76;100.00;99633.53;31200962;28;20048;-83
2022/01/01 23:52:25;;;;;;;10.10;4.30;;;;;;;2.77;100.00;99640.41;31167621;28;20487;-82
